sensor_id;sensor_type;location;lat;lon;timestamp;pressure;altitude;pressure_sealevel;temperature;humidity
55675;BME280;41562;44.330;23.802;2023-03-22T00:01:54;100061.38;;;11.64;100.00
55675;BME280;41562;44.330;23.802;2023-03-22T00:04:21;100056.00;;;11.64;100.00
55675;BME280;41562;44.330;23.802;2023-03-22T00:06:51;100051.19;;;11.66;100.00
55675;BME280;41562;44.330;23.802;2023-03-22T00:09:18;100033.16;;;11.77;100.00
55675;BME280;41562;44.330;23.802;2023-03-22T00:11:45;100046.75;;;11.52;100.00
55675;BME280;41562;44.330;23.802;2023-03-22T00:14:19;100049.59;;;11.65;100.00
55675;BME280;41562;44.330;23.802;2023-03-22T00:16:46;100037.69;;;11.82;100.00
55675;BME280;41562;44.330;23.802;2023-03-22T00:19:13;100045.09;;;11.61;100.00
55675;BME280;41562;44.330;23.802;2023-03-22T00:21:40;100036.31;;;11.55;100.00
55675;BME280;41562;44.330;23.802;2023-03-22T00:24:07;100033.97;;;11.78;100.00
55675;BME280;41562;44.330;23.802;2023-03-22T00:26:35;100032.50;;;11.61;100.00
55675;BME280;41562;44.330;23.802;2023-03-22T00:29:04;100042.94;;;11.63;100.00
55675;BME280;41562;44.330;23.802;2023-03-22T00:31:40;100030.69;;;11.52;100.00
55675;BME280;41562;44.330;23.802;2023-03-22T00:34:08;100025.66;;;11.45;100.00
55675;BME280;41562;44.330;23.802;2023-03-22T00:36:35;100028.88;;;11.47;100.00
55675;BME280;41562;44.330;23.802;2023-03-22T00:39:02;100023.84;;;11.41;100.00
55675;BME280;41562;44.330;23.802;2023-03-22T00:41:29;100028.00;;;11.57;100.00
55675;BME280;41562;44.330;23.802;2023-03-22T00:44:00;100027.19;;;11.56;100.00
55675;BME280;41562;44.330;23.802;2023-03-22T00:46:28;100030.69;;;11.52;100.00
55675;BME280;41562;44.330;23.802;2023-03-22T00:48:55;100035.25;;;11.51;100.00
55675;BME280;41562;44.330;23.802;2023-03-22T00:51:23;100031.50;;;11.52;100.00
55675;BME280;41562;44.330;23.802;2023-03-22T00:53:50;100029.56;;;11.58;100.00
55675;BME280;41562;44.330;23.802;2023-03-22T00:56:21;100019.31;;;11.65;100.00
55675;BME280;41562;44.330;23.802;2023-03-22T00:58:49;100022.25;;;11.68;100.00
55675;BME280;41562;44.330;23.802;2023-03-22T01:01:19;100027.69;;;11.58;100.00
55675;BME280;41562;44.330;23.802;2023-03-22T01:03:47;100024.34;;;11.72;100.00
55675;BME280;41562;44.330;23.802;2023-03-22T01:06:17;100031.09;;;11.64;100.00
55675;BME280;41562;44.330;23.802;2023-03-22T01:08:44;100023.31;;;11.67;100.00
55675;BME280;41562;44.330;23.802;2023-03-22T01:11:12;100029.53;;;11.63;100.00
55675;BME280;41562;44.330;23.802;2023-03-22T01:13:42;100025.81;;;11.59;100.00
55675;BME280;41562;44.330;23.802;2023-03-22T01:16:09;100025.00;;;11.58;100.00
55675;BME280;41562;44.330;23.802;2023-03-22T01:18:36;100025.81;;;11.59;100.00
55675;BME280;41562;44.330;23.802;2023-03-22T01:21:07;100020.56;;;11.49;100.00
55675;BME280;41562;44.330;23.802;2023-03-22T01:23:34;100022.38;;;11.53;100.00
55675;BME280;41562;44.330;23.802;2023-03-22T01:26:03;100023.56;;;11.42;100.00
55675;BME280;41562;44.330;23.802;2023-03-22T01:28:31;100014.81;;;11.60;100.00
55675;BME280;41562;44.330;23.802;2023-03-22T01:31:02;100012.59;;;11.44;100.00
55675;BME280;41562;44.330;23.802;2023-03-22T01:33:29;100012.59;;;11.39;100.00
55675;BME280;41562;44.330;23.802;2023-03-22T01:35:57;100006.75;;;11.37;100.00
55675;BME280;41562;44.330;23.802;2023-03-22T01:38:24;100013.34;;;11.49;100.00
55675;BME280;41562;44.330;23.802;2023-03-22T01:40:51;100016.00;;;11.49;100.00
55675;BME280;41562;44.330;23.802;2023-03-22T01:43:18;100006.59;;;11.52;100.00
55675;BME280;41562;44.330;23.802;2023-03-22T01:45:47;100013.66;;;11.43;100.00
55675;BME280;41562;44.330;23.802;2023-03-22T01:51:13;100005.16;;;11.36;100.00
55675;BME280;41562;44.330;23.802;2023-03-22T01:54:02;100015.06;;;11.35;100.00
55675;BME280;41562;44.330;23.802;2023-03-22T01:56:35;100019.81;;;11.43;100.00
55675;BME280;41562;44.330;23.802;2023-03-22T01:59:04;100013.94;;;11.41;100.00
55675;BME280;41562;44.330;23.802;2023-03-22T02:01:33;100015.22;;;11.49;100.00
55675;BME280;41562;44.330;23.802;2023-03-22T02:04:07;100026.72;;;11.49;100.00
55675;BME280;41562;44.330;23.802;2023-03-22T02:06:36;100021.97;;;11.41;100.00
55675;BME280;41562;44.330;23.802;2023-03-22T02:09:05;100027.25;;;11.46;100.00
55675;BME280;41562;44.330;23.802;2023-03-22T02:11:38;100028.06;;;11.47;100.00
55675;BME280;41562;44.330;23.802;2023-03-22T02:19:59;100020.63;;;11.44;100.00
55675;BME280;41562;44.330;23.802;2023-03-22T02:25:41;100019.72;;;11.53;100.00
55675;BME280;41562;44.330;23.802;2023-03-22T02:31:01;100020.09;;;11.42;100.00
55675;BME280;41562;44.330;23.802;2023-03-22T02:33:38;100021.59;;;11.53;100.00
55675;BME280;41562;44.330;23.802;2023-03-22T02:41:41;100025.72;;;11.40;100.00
55675;BME280;41562;44.330;23.802;2023-03-22T02:44:24;100032.63;;;11.46;100.00
55675;BME280;41562;44.330;23.802;2023-03-22T02:47:22;100028.41;;;11.40;100.00
55675;BME280;41562;44.330;23.802;2023-03-22T02:52:41;100037.28;;;11.36;100.00
55675;BME280;41562;44.330;23.802;2023-03-22T02:57:47;100039.09;;;11.40;100.00
55675;BME280;41562;44.330;23.802;2023-03-22T03:00:21;100035.34;;;11.41;100.00
55675;BME280;41562;44.330;23.802;2023-03-22T03:02:53;100032.06;;;11.49;100.00
55675;BME280;41562;44.330;23.802;2023-03-22T03:05:21;100039.47;;;11.57;100.00
55675;BME280;41562;44.330;23.802;2023-03-22T03:07:56;100041.72;;;11.50;100.00
55675;BME280;41562;44.330;23.802;2023-03-22T03:10:24;100038.78;;;11.47;100.00
55675;BME280;41562;44.330;23.802;2023-03-22T03:12:53;100043.44;;;11.36;100.00
55675;BME280;41562;44.330;23.802;2023-03-22T03:15:21;100044.13;;;11.47;100.00
55675;BME280;41562;44.330;23.802;2023-03-22T03:20:48;100049.75;;;11.45;100.00
55675;BME280;41562;44.330;23.802;2023-03-22T03:23:33;100049.75;;;11.50;100.00
55675;BME280;41562;44.330;23.802;2023-03-22T03:28:48;100047.84;;;11.51;100.00
55675;BME280;41562;44.330;23.802;2023-03-22T03:34:07;100051.88;;;11.48;100.00
55675;BME280;41562;44.330;23.802;2023-03-22T03:36:40;100056.66;;;11.51;100.00
55675;BME280;41562;44.330;23.802;2023-03-22T03:39:11;100057.25;;;11.48;100.00
55675;BME280;41562;44.330;23.802;2023-03-22T03:41:41;100060.19;;;11.47;100.00
55675;BME280;41562;44.330;23.802;2023-03-22T03:44:09;100069.41;;;11.36;100.00
55675;BME280;41562;44.330;23.802;2023-03-22T03:46:38;100065.03;;;11.45;100.00
55675;BME280;41562;44.330;23.802;2023-03-22T03:49:06;100072.28;;;11.44;100.00
55675;BME280;41562;44.330;23.802;2023-03-22T03:51:49;100064.84;;;11.36;100.00
55675;BME280;41562;44.330;23.802;2023-03-22T03:54:17;100076.25;;;11.47;100.00
55675;BME280;41562;44.330;23.802;2023-03-22T03:56:44;100071.94;;;11.51;100.00
55675;BME280;41562;44.330;23.802;2023-03-22T03:59:13;100077.66;;;11.39;100.00
55675;BME280;41562;44.330;23.802;2023-03-22T04:01:42;100076.06;;;11.38;100.00
55675;BME280;41562;44.330;23.802;2023-03-22T04:04:09;100078.41;;;11.45;100.00
55675;BME280;41562;44.330;23.802;2023-03-22T04:06:37;100082.41;;;11.47;100.00
55675;BME280;41562;44.330;23.802;2023-03-22T04:09:04;100080.09;;;11.36;100.00
55675;BME280;41562;44.330;23.802;2023-03-22T04:11:31;100083.59;;;11.36;100.00
55675;BME280;41562;44.330;23.802;2023-03-22T04:13:59;100078.41;;;11.45;100.00
55675;BME280;41562;44.330;23.802;2023-03-22T04:16:27;100079.78;;;11.42;100.00
55675;BME280;41562;44.330;23.802;2023-03-22T04:18:54;100083.00;;;11.39;100.00
55675;BME280;41562;44.330;23.802;2023-03-22T04:21:21;100083.00;;;11.44;100.00
55675;BME280;41562;44.330;23.802;2023-03-22T04:23:49;100089.44;;;11.38;100.00
55675;BME280;41562;44.330;23.802;2023-03-22T04:26:16;100092.09;;;11.43;100.00
55675;BME280;41562;44.330;23.802;2023-03-22T04:28:43;100093.16;;;11.42;100.00
55675;BME280;41562;44.330;23.802;2023-03-22T04:31:11;100096.16;;;11.36;100.00
55675;BME280;41562;44.330;23.802;2023-03-22T04:33:42;100083.84;;;11.35;100.00
55675;BME280;41562;44.330;23.802;2023-03-22T04:36:13;100090.97;;;11.49;100.00
55675;BME280;41562;44.330;23.802;2023-03-22T04:38:41;100096.88;;;13.18;100.00
55675;BME280;41562;44.330;23.802;2023-03-22T04:41:09;100101.44;;;15.41;100.00
55675;BME280;41562;44.330;23.802;2023-03-22T04:43:37;100099.13;;;15.48;100.00
55675;BME280;41562;44.330;23.802;2023-03-22T04:46:06;100100.56;;;16.07;98.13
55675;BME280;41562;44.330;23.802;2023-03-22T04:48:36;100100.94;;;15.17;100.00
55675;BME280;41562;44.330;23.802;2023-03-22T04:51:05;100100.59;;;14.96;100.00
55675;BME280;41562;44.330;23.802;2023-03-22T04:53:34;100105.97;;;12.98;100.00
55675;BME280;41562;44.330;23.802;2023-03-22T04:56:02;100105.47;;;12.54;100.00
55675;BME280;41562;44.330;23.802;2023-03-22T04:58:30;100103.88;;;12.53;100.00
55675;BME280;41562;44.330;23.802;2023-03-22T05:00:58;100102.97;;;13.88;100.00
55675;BME280;41562;44.330;23.802;2023-03-22T05:03:29;100110.41;;;14.65;100.00
55675;BME280;41562;44.330;23.802;2023-03-22T05:06:00;100112.09;;;14.61;100.00
55675;BME280;41562;44.330;23.802;2023-03-22T05:08:29;100113.91;;;13.27;100.00
55675;BME280;41562;44.330;23.802;2023-03-22T05:11:22;100114.56;;;12.34;100.00
55675;BME280;41562;44.330;23.802;2023-03-22T05:13:49;100118.84;;;12.11;100.00
55675;BME280;41562;44.330;23.802;2023-03-22T05:16:17;100114.78;;;11.85;100.00
55675;BME280;41562;44.330;23.802;2023-03-22T05:18:45;100114.91;;;11.75;100.00
55675;BME280;41562;44.330;23.802;2023-03-22T05:21:15;100117.66;;;11.59;100.00
55675;BME280;41562;44.330;23.802;2023-03-22T05:23:43;100121.19;;;11.55;100.00
55675;BME280;41562;44.330;23.802;2023-03-22T05:26:11;100131.91;;;11.55;100.00
55675;BME280;41562;44.330;23.802;2023-03-22T05:28:38;100133.19;;;11.62;100.00
55675;BME280;41562;44.330;23.802;2023-03-22T05:31:06;100132.88;;;11.69;100.00
55675;BME280;41562;44.330;23.802;2023-03-22T05:33:34;100135.56;;;11.64;100.00
55675;BME280;41562;44.330;23.802;2023-03-22T05:36:01;100125.09;;;11.67;100.00
55675;BME280;41562;44.330;23.802;2023-03-22T05:38:28;100130.47;;;11.67;100.00
55675;BME280;41562;44.330;23.802;2023-03-22T05:41:01;100134.72;;;11.74;100.00
55675;BME280;41562;44.330;23.802;2023-03-22T05:43:29;100141.16;;;11.67;100.00
55675;BME280;41562;44.330;23.802;2023-03-22T05:45:56;100140.31;;;11.77;100.00
55675;BME280;41562;44.330;23.802;2023-03-22T05:48:23;100142.19;;;11.77;100.00
55675;BME280;41562;44.330;23.802;2023-03-22T05:50:50;100145.94;;;11.70;100.00
55675;BME280;41562;44.330;23.802;2023-03-22T05:53:18;100153.16;;;11.80;100.00
55675;BME280;41562;44.330;23.802;2023-03-22T05:55:48;100159.31;;;11.81;100.00
55675;BME280;41562;44.330;23.802;2023-03-22T05:58:15;100163.41;;;11.68;100.00
55675;BME280;41562;44.330;23.802;2023-03-22T06:00:42;100168.72;;;11.73;100.00
55675;BME280;41562;44.330;23.802;2023-03-22T06:03:29;100166.88;;;11.74;100.00
55675;BME280;41562;44.330;23.802;2023-03-22T06:06:01;100174.06;;;11.73;100.00
55675;BME280;41562;44.330;23.802;2023-03-22T06:08:28;100178.88;;;11.81;100.00
55675;BME280;41562;44.330;23.802;2023-03-22T06:10:57;100182.84;;;11.84;100.00
55675;BME280;41562;44.330;23.802;2023-03-22T06:13:24;100188.28;;;11.74;100.00
55675;BME280;41562;44.330;23.802;2023-03-22T06:15:58;100189.84;;;11.80;100.00
55675;BME280;41562;44.330;23.802;2023-03-22T06:18:26;100188.25;;;11.79;100.00
55675;BME280;41562;44.330;23.802;2023-03-22T06:20:54;100193.56;;;11.84;100.00
55675;BME280;41562;44.330;23.802;2023-03-22T06:23:21;100199.00;;;11.74;100.00
55675;BME280;41562;44.330;23.802;2023-03-22T06:25:49;100190.88;;;11.84;100.00
55675;BME280;41562;44.330;23.802;2023-03-22T06:28:17;100193.06;;;11.77;100.00
55675;BME280;41562;44.330;23.802;2023-03-22T06:30:44;100195.22;;;11.80;100.00
55675;BME280;41562;44.330;23.802;2023-03-22T06:33:12;100201.91;;;11.82;100.00
55675;BME280;41562;44.330;23.802;2023-03-22T06:35:39;100206.91;;;11.94;100.00
55675;BME280;41562;44.330;23.802;2023-03-22T06:38:06;100207.72;;;11.89;100.00
55675;BME280;41562;44.330;23.802;2023-03-22T06:40:33;100208.28;;;11.86;100.00
55675;BME280;41562;44.330;23.802;2023-03-22T06:43:01;100206.78;;;11.75;100.00
55675;BME280;41562;44.330;23.802;2023-03-22T06:45:35;100211.09;;;12.05;100.00
55675;BME280;41562;44.330;23.802;2023-03-22T06:48:06;100213.06;;;11.94;100.00
55675;BME280;41562;44.330;23.802;2023-03-22T06:50:33;100205.81;;;11.95;100.00
55675;BME280;41562;44.330;23.802;2023-03-22T06:53:00;100206.28;;;12.02;100.00
55675;BME280;41562;44.330;23.802;2023-03-22T06:55:27;100204.69;;;12.01;100.00
55675;BME280;41562;44.330;23.802;2023-03-22T06:57:55;100213.97;;;12.14;100.00
55675;BME280;41562;44.330;23.802;2023-03-22T07:00:22;100204.16;;;12.28;100.00
55675;BME280;41562;44.330;23.802;2023-03-22T07:02:49;100204.78;;;12.48;100.00
55675;BME280;41562;44.330;23.802;2023-03-22T07:05:21;100209.81;;;12.55;100.00
55675;BME280;41562;44.330;23.802;2023-03-22T07:07:48;100205.56;;;12.49;100.00
55675;BME280;41562;44.330;23.802;2023-03-22T07:10:15;100217.31;;;12.29;100.00
55675;BME280;41562;44.330;23.802;2023-03-22T07:12:43;100222.84;;;12.09;100.00
55675;BME280;41562;44.330;23.802;2023-03-22T07:15:10;100215.53;;;12.20;100.00
55675;BME280;41562;44.330;23.802;2023-03-22T07:17:38;100218.13;;;12.54;100.00
55675;BME280;41562;44.330;23.802;2023-03-22T07:20:05;100227.69;;;12.36;100.00
55675;BME280;41562;44.330;23.802;2023-03-22T07:22:33;100227.66;;;12.12;100.00
55675;BME280;41562;44.330;23.802;2023-03-22T07:25:00;100228.13;;;12.19;100.00
55675;BME280;41562;44.330;23.802;2023-03-22T07:27:28;100233.88;;;12.36;100.00
55675;BME280;41562;44.330;23.802;2023-03-22T07:29:55;100233.50;;;12.14;100.00
55675;BME280;41562;44.330;23.802;2023-03-22T07:32:22;100237.25;;;12.18;100.00
55675;BME280;41562;44.330;23.802;2023-03-22T07:34:50;100237.53;;;12.45;100.00
55675;BME280;41562;44.330;23.802;2023-03-22T07:37:17;100242.53;;;12.52;100.00
55675;BME280;41562;44.330;23.802;2023-03-22T07:39:45;100245.13;;;12.33;100.00
55675;BME280;41562;44.330;23.802;2023-03-22T07:42:12;100242.88;;;12.17;100.00
55675;BME280;41562;44.330;23.802;2023-03-22T07:44:40;100240.44;;;12.20;100.00
55675;BME280;41562;44.330;23.802;2023-03-22T07:47:07;100244.38;;;11.99;100.00
55675;BME280;41562;44.330;23.802;2023-03-22T07:49:35;100239.53;;;12.01;100.00
55675;BME280;41562;44.330;23.802;2023-03-22T07:52:02;100244.22;;;12.19;100.00
55675;BME280;41562;44.330;23.802;2023-03-22T07:54:29;100239.88;;;12.23;100.00
55675;BME280;41562;44.330;23.802;2023-03-22T07:57:00;100235.78;;;12.31;100.00
55675;BME280;41562;44.330;23.802;2023-03-22T07:59:28;100242.44;;;12.33;100.00
55675;BME280;41562;44.330;23.802;2023-03-22T08:01:55;100249.56;;;12.19;100.00
55675;BME280;41562;44.330;23.802;2023-03-22T08:04:23;100250.59;;;12.23;100.00
55675;BME280;41562;44.330;23.802;2023-03-22T08:06:50;100258.47;;;12.09;100.00
55675;BME280;41562;44.330;23.802;2023-03-22T08:09:18;100249.72;;;11.99;100.00
55675;BME280;41562;44.330;23.802;2023-03-22T08:11:45;100254.94;;;12.19;100.00
55675;BME280;41562;44.330;23.802;2023-03-22T08:14:12;100260.44;;;11.99;100.00
55675;BME280;41562;44.330;23.802;2023-03-22T08:16:39;100257.84;;;12.23;100.00
55675;BME280;41562;44.330;23.802;2023-03-22T08:19:07;100263.25;;;12.18;100.00
55675;BME280;41562;44.330;23.802;2023-03-22T08:21:34;100256.75;;;12.24;100.00
55675;BME280;41562;44.330;23.802;2023-03-22T08:24:20;100255.53;;;12.40;100.00
55675;BME280;41562;44.330;23.802;2023-03-22T08:27:07;100260.94;;;12.35;100.00
55675;BME280;41562;44.330;23.802;2023-03-22T08:29:54;100263.16;;;12.28;100.00
55675;BME280;41562;44.330;23.802;2023-03-22T08:32:40;100265.50;;;12.34;100.00
55675;BME280;41562;44.330;23.802;2023-03-22T08:35:27;100266.31;;;12.35;100.00
55675;BME280;41562;44.330;23.802;2023-03-22T08:38:14;100269.03;;;12.30;100.00
55675;BME280;41562;44.330;23.802;2023-03-22T08:40:44;100270.91;;;12.29;100.00
55675;BME280;41562;44.330;23.802;2023-03-22T08:43:12;100275.81;;;12.22;100.00
55675;BME280;41562;44.330;23.802;2023-03-22T08:45:39;100273.13;;;12.22;100.00
55675;BME280;41562;44.330;23.802;2023-03-22T08:48:07;100275.84;;;12.17;100.00
55675;BME280;41562;44.330;23.802;2023-03-22T08:50:34;100283.53;;;11.95;100.00
55675;BME280;41562;44.330;23.802;2023-03-22T08:53:01;100281.16;;;12.22;100.00
55675;BME280;41562;44.330;23.802;2023-03-22T08:55:29;100279.53;;;12.26;100.00
55675;BME280;41562;44.330;23.802;2023-03-22T08:57:56;100285.00;;;12.11;100.00
55675;BME280;41562;44.330;23.802;2023-03-22T09:00:23;100276.31;;;11.90;100.00
55675;BME280;41562;44.330;23.802;2023-03-22T09:02:51;100278.16;;;11.95;100.00
55675;BME280;41562;44.330;23.802;2023-03-22T09:05:18;100279.13;;;12.09;100.00
55675;BME280;41562;44.330;23.802;2023-03-22T09:07:45;100286.94;;;12.05;100.00
55675;BME280;41562;44.330;23.802;2023-03-22T09:10:13;100284.75;;;12.13;100.00
55675;BME280;41562;44.330;23.802;2023-03-22T09:12:40;100293.69;;;11.98;100.00
55675;BME280;41562;44.330;23.802;2023-03-22T09:15:07;100290.00;;;11.84;100.00
55675;BME280;41562;44.330;23.802;2023-03-22T09:17:35;100290.19;;;11.97;100.00
55675;BME280;41562;44.330;23.802;2023-03-22T09:20:02;100293.69;;;11.98;100.00
55675;BME280;41562;44.330;23.802;2023-03-22T09:22:38;100288.28;;;12.03;100.00
55675;BME280;41562;44.330;23.802;2023-03-22T09:25:06;100286.03;;;12.20;100.00
55675;BME280;41562;44.330;23.802;2023-03-22T09:27:34;100283.50;;;12.00;100.00
55675;BME280;41562;44.330;23.802;2023-03-22T09:30:02;100284.06;;;12.31;100.00
55675;BME280;41562;44.330;23.802;2023-03-22T09:32:47;100281.38;;;12.31;100.00
55675;BME280;41562;44.330;23.802;2023-03-22T09:35:14;100280.63;;;12.25;100.00
55675;BME280;41562;44.330;23.802;2023-03-22T09:37:42;100287.28;;;12.28;100.00
55675;BME280;41562;44.330;23.802;2023-03-22T09:40:10;100284.22;;;12.44;100.00
55675;BME280;41562;44.330;23.802;2023-03-22T09:42:43;100286.38;;;12.42;100.00
55675;BME280;41562;44.330;23.802;2023-03-22T09:45:24;100282.44;;;12.59;100.00
55675;BME280;41562;44.330;23.802;2023-03-22T09:47:53;100293.50;;;12.23;100.00
55675;BME280;41562;44.330;23.802;2023-03-22T09:50:27;100290.06;;;12.46;100.00
55675;BME280;41562;44.330;23.802;2023-03-22T09:52:57;100284.28;;;12.34;100.00
55675;BME280;41562;44.330;23.802;2023-03-22T09:56:09;100292.81;;;12.41;100.00
55675;BME280;41562;44.330;23.802;2023-03-22T09:58:32;100293.34;;;12.43;100.00
55675;BME280;41562;44.330;23.802;2023-03-22T10:01:10;100284.53;;;12.67;100.00
55675;BME280;41562;44.330;23.802;2023-03-22T10:06:19;100282.44;;;12.87;100.00
55675;BME280;41562;44.330;23.802;2023-03-22T10:11:40;100290.97;;;12.66;100.00
55675;BME280;41562;44.330;23.802;2023-03-22T10:16:59;100295.25;;;12.67;100.00
55675;BME280;41562;44.330;23.802;2023-03-22T10:19:37;100297.94;;;12.67;100.00
55675;BME280;41562;44.330;23.802;2023-03-22T10:22:15;100293.66;;;12.37;100.00
55675;BME280;41562;44.330;23.802;2023-03-22T10:24:45;100293.06;;;12.45;100.00
55675;BME280;41562;44.330;23.802;2023-03-22T10:27:16;100295.97;;;12.48;100.00
55675;BME280;41562;44.330;23.802;2023-03-22T10:33:00;100293.22;;;12.54;100.00
55675;BME280;41562;44.330;23.802;2023-03-22T10:35:29;100292.09;;;12.31;100.00
55675;BME280;41562;44.330;23.802;2023-03-22T10:37:58;100300.31;;;12.44;100.00
55675;BME280;41562;44.330;23.802;2023-03-22T10:40:30;100298.84;;;12.23;100.00
55675;BME280;41562;44.330;23.802;2023-03-22T10:43:02;100291.41;;;12.15;100.00
55675;BME280;41562;44.330;23.802;2023-03-22T10:45:33;100306.34;;;12.26;100.00
55675;BME280;41562;44.330;23.802;2023-03-22T10:48:10;100298.09;;;12.18;100.00
55675;BME280;41562;44.330;23.802;2023-03-22T10:50:43;100296.44;;;12.56;100.00
55675;BME280;41562;44.330;23.802;2023-03-22T10:53:38;100297.00;;;12.53;100.00
55675;BME280;41562;44.330;23.802;2023-03-22T10:56:15;100286.72;;;12.60;100.00
55675;BME280;41562;44.330;23.802;2023-03-22T10:58:43;100287.88;;;12.54;100.00
55675;BME280;41562;44.330;23.802;2023-03-22T11:01:13;100293.56;;;12.47;100.00
55675;BME280;41562;44.330;23.802;2023-03-22T11:03:43;100287.97;;;12.43;100.00
55675;BME280;41562;44.330;23.802;2023-03-22T11:06:17;100284.28;;;12.34;100.00
55675;BME280;41562;44.330;23.802;2023-03-22T11:08:53;100283.13;;;12.45;100.00
55675;BME280;41562;44.330;23.802;2023-03-22T11:11:24;100285.72;;;12.56;100.00
55675;BME280;41562;44.330;23.802;2023-03-22T11:13:58;100275.44;;;12.63;100.00
55675;BME280;41562;44.330;23.802;2023-03-22T11:16:28;100276.38;;;12.77;100.00
55675;BME280;41562;44.330;23.802;2023-03-22T11:18:57;100276.22;;;12.92;100.00
55675;BME280;41562;44.330;23.802;2023-03-22T11:21:31;100267.69;;;13.14;100.00
55675;BME280;41562;44.330;23.802;2023-03-22T11:24:04;100263.31;;;14.76;93.57
55675;BME280;41562;44.330;23.802;2023-03-22T11:26:35;100257.09;;;15.44;90.57
55675;BME280;41562;44.330;23.802;2023-03-22T11:29:15;100255.16;;;15.09;90.66
55675;BME280;41562;44.330;23.802;2023-03-22T11:31:57;100254.06;;;13.85;95.81
55675;BME280;41562;44.330;23.802;2023-03-22T11:34:28;100248.50;;;13.82;96.70
55675;BME280;41562;44.330;23.802;2023-03-22T11:36:59;100240.34;;;13.31;100.00
55675;BME280;41562;44.330;23.802;2023-03-22T11:39:27;100245.44;;;13.69;97.78
55675;BME280;41562;44.330;23.802;2023-03-22T11:41:57;100240.88;;;13.70;96.03
55675;BME280;41562;44.330;23.802;2023-03-22T11:44:27;100243.88;;;14.01;95.05
55675;BME280;41562;44.330;23.802;2023-03-22T11:47:00;100239.69;;;14.27;96.13
55675;BME280;41562;44.330;23.802;2023-03-22T11:49:38;100240.41;;;14.33;94.61
55675;BME280;41562;44.330;23.802;2023-03-22T11:52:13;100232.00;;;13.88;95.10
55675;BME280;41562;44.330;23.802;2023-03-22T11:54:43;100228.06;;;13.81;95.67
55675;BME280;41562;44.330;23.802;2023-03-22T11:57:26;100237.75;;;14.14;93.41
55675;BME280;41562;44.330;23.802;2023-03-22T12:00:02;100233.84;;;14.06;91.87
55675;BME280;41562;44.330;23.802;2023-03-22T12:02:33;100221.72;;;14.23;92.92
55675;BME280;41562;44.330;23.802;2023-03-22T12:05:07;100222.16;;;14.30;92.56
55675;BME280;41562;44.330;23.802;2023-03-22T12:07:39;100230.59;;;14.09;92.72
55675;BME280;41562;44.330;23.802;2023-03-22T12:10:20;100219.97;;;13.99;94.17
55675;BME280;41562;44.330;23.802;2023-03-22T12:12:57;100216.38;;;14.36;93.97
55675;BME280;41562;44.330;23.802;2023-03-22T12:15:28;100211.34;;;14.02;94.42
55675;BME280;41562;44.330;23.802;2023-03-22T12:18:18;100216.28;;;13.95;95.77
55675;BME280;41562;44.330;23.802;2023-03-22T12:23:24;100208.72;;;13.46;95.95
55675;BME280;41562;44.330;23.802;2023-03-22T12:26:16;100204.34;;;13.13;96.12
55675;BME280;41562;44.330;23.802;2023-03-22T12:29:05;100205.72;;;13.29;96.87
55675;BME280;41562;44.330;23.802;2023-03-22T12:31:42;100208.41;;;13.66;94.45
55675;BME280;41562;44.330;23.802;2023-03-22T12:34:17;100205.34;;;13.54;95.26
55675;BME280;41562;44.330;23.802;2023-03-22T12:36:55;100203.72;;;13.40;97.30
55675;BME280;41562;44.330;23.802;2023-03-22T12:39:28;100205.72;;;13.29;97.13
55675;BME280;41562;44.330;23.802;2023-03-22T12:42:02;100199.41;;;13.39;95.84
55675;BME280;41562;44.330;23.802;2023-03-22T12:44:38;100202.88;;;13.77;93.15
55675;BME280;41562;44.330;23.802;2023-03-22T12:47:26;100193.19;;;13.94;92.53
55675;BME280;41562;44.330;23.802;2023-03-22T12:50:03;100199.31;;;14.14;89.33
55675;BME280;41562;44.330;23.802;2023-03-22T12:52:38;100197.56;;;14.36;88.49
55675;BME280;41562;44.330;23.802;2023-03-22T12:55:37;100197.66;;;14.31;89.17
55675;BME280;41562;44.330;23.802;2023-03-22T12:58:20;100192.13;;;14.41;88.13
55675;BME280;41562;44.330;23.802;2023-03-22T13:00:52;100202.38;;;14.07;87.97
55675;BME280;41562;44.330;23.802;2023-03-22T13:03:37;100190.53;;;13.76;89.53
55675;BME280;41562;44.330;23.802;2023-03-22T13:11:44;100199.38;;;13.95;90.38
55675;BME280;41562;44.330;23.802;2023-03-22T13:14:54;100190.91;;;13.69;92.05
55675;BME280;41562;44.330;23.802;2023-03-22T13:19:53;100202.53;;;13.46;93.83
55675;BME280;41562;44.330;23.802;2023-03-22T13:23:03;100204.00;;;13.57;91.48
55675;BME280;41562;44.330;23.802;2023-03-22T13:25:35;100190.19;;;13.45;90.86
55675;BME280;41562;44.330;23.802;2023-03-22T13:28:22;100191.47;;;13.66;89.67
55675;BME280;41562;44.330;23.802;2023-03-22T13:30:55;100190.03;;;14.06;88.64
55675;BME280;41562;44.330;23.802;2023-03-22T13:33:30;100185.03;;;13.99;88.95
55675;BME280;41562;44.330;23.802;2023-03-22T13:36:07;100188.69;;;14.22;86.36
55675;BME280;41562;44.330;23.802;2023-03-22T13:38:54;100186.38;;;13.83;88.18
55675;BME280;41562;44.330;23.802;2023-03-22T13:41:34;100201.25;;;13.94;88.30
55675;BME280;41562;44.330;23.802;2023-03-22T13:44:28;100196.34;;;13.64;88.82
55675;BME280;41562;44.330;23.802;2023-03-22T13:46:59;100197.97;;;13.65;91.00
55675;BME280;41562;44.330;23.802;2023-03-22T13:51:59;100187.63;;;14.04;88.04
55675;BME280;41562;44.330;23.802;2023-03-22T13:54:37;100191.69;;;13.88;89.06